createdAt,value
2018-05-25T00:01:22.634Z,7.53
2018-05-25T00:04:25.942Z,9.23
2018-05-25T00:07:29.263Z,10.00
2018-05-25T00:10:32.574Z,6.87
2018-05-25T00:13:35.885Z,8.83
2018-05-25T00:16:39.206Z,6.70
2018-05-25T00:19:42.525Z,7.47
2018-05-25T00:22:45.831Z,13.53
2018-05-25T00:25:49.922Z,9.30
2018-05-25T00:28:53.226Z,9.80
2018-05-25T00:31:56.542Z,9.60
2018-05-25T00:35:00.605Z,8.97
2018-05-25T00:38:03.921Z,11.03
2018-05-25T00:41:07.243Z,10.90
2018-05-25T00:44:11.346Z,8.63
2018-05-25T00:47:14.654Z,11.10
2018-05-25T00:50:18.764Z,9.73
2018-05-25T00:53:22.054Z,7.77
2018-05-25T00:56:25.403Z,10.07
2018-05-25T00:59:28.708Z,7.07
2018-05-25T01:02:32.026Z,11.43
2018-05-25T01:05:35.327Z,8.47
2018-05-25T01:08:38.650Z,12.77
2018-05-25T01:11:42.734Z,13.13
2018-05-25T01:14:46.045Z,7.93
2018-05-25T01:17:49.365Z,9.20
2018-05-25T01:20:52.685Z,11.07
2018-05-25T01:23:56.001Z,11.33
2018-05-25T01:26:59.351Z,8.23
2018-05-25T01:30:02.670Z,9.33
2018-05-25T01:33:05.973Z,8.03
2018-05-25T01:36:09.286Z,9.67
2018-05-25T01:39:12.614Z,10.07
2018-05-25T01:42:16.709Z,8.57
2018-05-25T01:45:20.048Z,10.73
2018-05-25T01:48:23.361Z,14.43
2018-05-25T01:51:26.689Z,16.83
2018-05-25T01:54:29.994Z,10.97
2018-05-25T01:57:33.334Z,9.67
2018-05-25T02:00:37.409Z,11.57
2018-05-25T02:03:40.765Z,10.90
2018-05-25T02:06:44.074Z,12.03
2018-05-25T02:09:47.394Z,11.60
2018-05-25T02:12:50.701Z,12.13
2018-05-25T02:15:54.013Z,13.03
2018-05-25T02:18:57.308Z,13.47
2018-05-25T02:22:00.625Z,12.53
2018-05-25T02:25:04.696Z,12.10
2018-05-25T02:28:08.023Z,13.57
2018-05-25T02:31:11.352Z,12.37
2018-05-25T02:34:14.653Z,11.47
2018-05-25T02:37:17.969Z,10.73
2018-05-25T02:40:21.280Z,13.77
2018-05-25T02:43:24.609Z,12.97
2018-05-25T02:46:27.919Z,14.10
2018-05-25T02:49:31.996Z,13.27
2018-05-25T02:52:35.303Z,9.53
2018-05-25T02:55:38.657Z,11.23
2018-05-25T02:58:41.964Z,12.47
2018-05-25T03:01:45.278Z,14.00
2018-05-25T03:04:48.594Z,10.87
2018-05-25T03:07:51.927Z,10.33
2018-05-25T03:10:55.241Z,10.80
2018-05-25T03:13:58.561Z,10.07
2018-05-25T03:17:01.871Z,13.30
2018-05-25T03:20:05.210Z,11.30
2018-05-25T03:23:08.519Z,11.03
2018-05-25T03:26:11.893Z,10.83
2018-05-25T03:29:15.181Z,14.47
2018-05-25T03:32:18.498Z,10.00
2018-05-25T03:35:21.792Z,13.87
2018-05-25T03:38:25.521Z,11.50
2018-05-25T03:41:28.821Z,9.90
2018-05-25T03:44:32.141Z,11.93
2018-05-25T03:47:35.455Z,13.07
2018-05-25T03:50:38.778Z,10.47
2018-05-25T03:53:42.849Z,13.23
2018-05-25T03:56:46.169Z,11.53
2018-05-25T04:00:07.238Z,16.17
2018-05-25T04:03:10.559Z,12.10
2018-05-25T04:06:13.864Z,11.60
2018-05-25T04:09:18.014Z,13.30
2018-05-25T04:12:21.318Z,13.07
2018-05-25T04:15:24.628Z,12.07
2018-05-25T04:18:27.941Z,8.80
2018-05-25T04:21:31.264Z,12.13
2018-05-25T04:24:34.570Z,13.87
2018-05-25T04:27:37.881Z,10.43
2018-05-25T04:30:41.990Z,10.17
2018-05-25T04:33:46.061Z,10.93
2018-05-25T04:36:49.369Z,13.00
2018-05-25T04:39:52.673Z,9.73
2018-05-25T04:42:55.998Z,14.47
2018-05-25T04:46:00.069Z,8.50
2018-05-25T04:49:03.385Z,10.97
2018-05-25T04:52:06.689Z,9.63
2018-05-25T04:55:10.013Z,11.67
2018-05-25T04:58:13.326Z,13.57
2018-05-25T05:01:16.646Z,8.77
2018-05-25T05:04:19.957Z,12.17
2018-05-25T05:07:23.270Z,11.93
2018-05-25T05:10:26.576Z,12.83
2018-05-25T05:13:30.657Z,12.97
2018-05-25T05:16:33.970Z,12.47
2018-05-25T05:19:37.286Z,11.03
2018-05-25T05:22:41.359Z,12.20
2018-05-25T05:25:44.673Z,10.00
2018-05-25T05:28:47.986Z,7.83
2018-05-25T05:31:51.393Z,9.77
2018-05-25T05:34:55.497Z,11.00
2018-05-25T05:37:58.802Z,8.37
2018-05-25T05:41:02.127Z,8.40
2018-05-25T05:44:05.434Z,10.37
2018-05-25T05:47:08.741Z,8.00
2018-05-25T05:50:12.065Z,8.10
2018-05-25T05:53:15.373Z,10.60
2018-05-25T05:56:18.778Z,6.63
2018-05-25T05:59:22.082Z,4.90
2018-05-25T06:02:26.181Z,7.17
2018-05-25T06:05:29.493Z,7.30
2018-05-25T06:08:33.569Z,5.17
2018-05-25T06:11:36.879Z,8.67
2018-05-25T06:14:40.198Z,13.37
2018-05-25T06:17:43.538Z,8.03
2018-05-25T06:20:46.857Z,9.60
2018-05-25T06:23:50.169Z,6.53
2018-05-25T06:26:53.481Z,8.03
2018-05-25T06:29:56.797Z,7.90
2018-05-25T06:33:00.878Z,5.20
2018-05-25T06:36:04.217Z,6.57
2018-05-25T06:39:07.515Z,6.00
2018-05-25T06:42:10.837Z,6.60
2018-05-25T06:45:14.141Z,4.20
2018-05-25T06:48:17.481Z,7.03
2018-05-25T06:51:20.781Z,6.30
2018-05-25T06:54:24.862Z,9.07
2018-05-25T06:57:28.175Z,7.20
2018-05-25T07:00:31.499Z,7.53
2018-05-25T07:03:35.570Z,7.60
2018-05-25T07:06:38.876Z,6.37
2018-05-25T07:09:42.185Z,7.57
2018-05-25T07:12:45.497Z,5.33
2018-05-25T07:15:49.570Z,8.40
2018-05-25T07:18:52.889Z,5.93
2018-05-25T07:21:56.200Z,10.83
2018-05-25T07:25:00.281Z,6.37
2018-05-25T07:28:03.593Z,5.93
2018-05-25T07:31:06.918Z,4.97
2018-05-25T07:34:11.010Z,3.80
2018-05-25T07:37:14.314Z,4.73
2018-05-25T07:40:18.389Z,8.97
2018-05-25T07:43:21.697Z,7.43
2018-05-25T07:46:25.010Z,7.73
2018-05-25T07:49:28.335Z,10.90
2018-05-25T07:52:31.674Z,7.17
2018-05-25T07:55:34.978Z,4.80
2018-05-25T07:58:38.297Z,6.43
2018-05-25T08:01:41.601Z,8.63
2018-05-25T08:04:44.926Z,7.13
2018-05-25T08:07:48.229Z,8.80
2018-05-25T08:10:51.546Z,9.83
2018-05-25T08:13:54.861Z,7.50
2018-05-25T08:16:58.169Z,8.77
2018-05-25T08:20:01.509Z,7.40
2018-05-25T08:23:04.809Z,4.90
2018-05-25T08:26:08.123Z,6.83
2018-05-25T08:29:11.430Z,5.40
2018-05-25T08:32:14.777Z,4.37
2018-05-25T08:35:18.854Z,10.87
2018-05-25T08:38:22.182Z,5.57
2018-05-25T08:41:26.258Z,3.73
2018-05-25T08:44:29.582Z,5.73
2018-05-25T08:47:32.911Z,5.60
2018-05-25T08:50:36.222Z,6.00
2018-05-25T08:53:39.540Z,7.00
2018-05-25T08:56:42.845Z,6.70
2018-05-25T08:59:46.150Z,6.20
2018-05-25T09:02:49.465Z,4.07
2018-05-25T09:05:52.784Z,3.80
2018-05-25T09:08:56.090Z,3.80
2018-05-25T09:11:59.409Z,5.43
2018-05-25T09:15:02.720Z,4.47
2018-05-25T09:18:06.044Z,7.93
2018-05-25T09:21:09.345Z,4.23
2018-05-25T09:24:12.657Z,2.83
2018-05-25T09:27:16.729Z,7.30
2018-05-25T09:30:20.045Z,3.57
2018-05-25T09:33:23.377Z,3.60
2018-05-25T09:36:26.680Z,5.23
2018-05-25T09:39:30.001Z,4.13
2018-05-25T09:42:33.317Z,3.73
2018-05-25T09:45:36.634Z,2.53
2018-05-25T09:48:40.717Z,5.87
2018-05-25T09:51:44.017Z,5.40
2018-05-25T09:54:47.333Z,4.50
2018-05-25T09:57:57.267Z,5.07
2018-05-25T10:01:00.593Z,6.13
2018-05-25T10:04:04.673Z,7.43
2018-05-25T10:07:07.984Z,4.63
2018-05-25T10:10:11.290Z,6.43
2018-05-25T10:13:14.605Z,3.40
2018-05-25T10:16:18.682Z,4.83
2018-05-25T10:19:21.990Z,4.87
2018-05-25T10:22:25.338Z,5.93
2018-05-25T10:25:28.646Z,5.67
2018-05-25T10:28:31.953Z,5.40
2018-05-25T10:31:35.252Z,4.40
2018-05-25T10:34:38.575Z,5.17
2018-05-25T10:37:41.877Z,2.50
2018-05-25T10:40:45.202Z,3.47
2018-05-25T10:43:48.529Z,3.30
2018-05-25T10:46:51.846Z,4.93
2018-05-25T10:49:55.150Z,4.80
2018-05-25T10:52:58.461Z,3.77
2018-05-25T10:56:01.785Z,4.13
2018-05-25T10:59:05.861Z,5.33
2018-05-25T11:02:09.201Z,3.90
2018-05-25T11:05:12.510Z,3.17
2018-05-25T11:08:15.834Z,6.57
2018-05-25T11:11:19.140Z,5.30
2018-05-25T11:14:22.457Z,2.97
2018-05-25T11:17:25.770Z,3.43
2018-05-25T11:20:29.867Z,5.30
2018-05-25T11:23:33.178Z,4.10
2018-05-25T11:26:36.485Z,4.03
2018-05-25T11:29:39.789Z,2.27
2018-05-25T11:32:43.108Z,4.00
2018-05-25T11:35:46.422Z,2.53
2018-05-25T11:38:49.731Z,4.20
2018-05-25T11:41:53.041Z,3.23
2018-05-25T11:44:56.369Z,4.80
2018-05-25T11:47:59.645Z,3.13
2018-05-25T11:51:02.989Z,4.40
2018-05-25T11:54:06.330Z,7.30
2018-05-25T11:57:09.625Z,4.03
2018-05-25T12:00:12.936Z,3.67
2018-05-25T12:03:17.140Z,2.53
2018-05-25T12:06:20.450Z,4.77
2018-05-25T12:09:24.554Z,2.50
2018-05-25T12:12:27.859Z,3.20
2018-05-25T12:15:31.942Z,4.50
2018-05-25T12:18:35.265Z,2.80
2018-05-25T12:21:39.353Z,5.73
2018-05-25T12:24:42.672Z,2.27
2018-05-25T12:27:46.762Z,6.43
2018-05-25T12:30:50.097Z,4.03
2018-05-25T12:33:54.177Z,4.03
2018-05-25T12:36:57.486Z,2.23
2018-05-25T12:40:00.824Z,21.53
2018-05-25T12:43:04.146Z,8.33
2018-05-25T12:46:07.472Z,4.83
2018-05-25T12:49:10.776Z,3.70
2018-05-25T12:52:14.103Z,4.50
2018-05-25T12:55:17.437Z,4.47
2018-05-25T12:58:20.757Z,11.00
2018-05-25T13:01:24.077Z,4.10
2018-05-25T13:04:28.185Z,2.17
2018-05-25T13:07:32.256Z,1.70
2018-05-25T13:10:35.593Z,1.67
2018-05-25T13:13:39.677Z,7.77
2018-05-25T13:16:42.993Z,3.83
2018-05-25T13:19:46.301Z,4.47
2018-05-25T13:22:49.657Z,5.93
2018-05-25T13:25:52.986Z,5.60
2018-05-25T13:28:56.315Z,3.77
2018-05-25T13:31:59.632Z,6.30
2018-05-25T13:35:02.943Z,3.80
2018-05-25T13:38:06.267Z,6.30
2018-05-25T13:41:09.598Z,3.57
2018-05-25T13:44:12.943Z,2.37
2018-05-25T13:47:16.242Z,1.73
2018-05-25T13:50:19.573Z,4.77
2018-05-25T13:53:22.888Z,2.70
2018-05-25T13:56:26.238Z,9.80
2018-05-25T13:59:29.549Z,8.87
2018-05-25T14:02:32.862Z,4.37
2018-05-25T14:05:36.178Z,2.10
2018-05-25T14:08:39.501Z,9.33
2018-05-25T14:11:42.871Z,4.70
2018-05-25T14:14:46.153Z,2.87
2018-05-25T14:17:50.255Z,5.60
2018-05-25T14:20:53.578Z,2.07
2018-05-25T14:23:56.906Z,5.67
2018-05-25T14:27:00.237Z,2.40
2018-05-25T14:30:03.573Z,4.50
2018-05-25T14:33:06.901Z,2.90
2018-05-25T14:36:11.902Z,4.50
2018-05-25T14:39:15.233Z,3.53
2018-05-25T14:42:18.539Z,4.60
2018-05-25T14:45:21.856Z,3.90
2018-05-25T14:48:25.195Z,3.47
2018-05-25T14:51:28.506Z,5.40
2018-05-25T14:54:31.829Z,2.07
2018-05-25T14:57:35.135Z,2.83
2018-05-25T15:00:38.447Z,4.30
2018-05-25T15:03:41.758Z,4.03
2018-05-25T15:06:45.872Z,4.00
2018-05-25T15:09:49.177Z,1.70
2018-05-25T15:12:53.263Z,1.67
2018-05-25T15:15:56.570Z,5.87
2018-05-25T15:18:59.894Z,2.13
2018-05-25T15:22:03.202Z,2.63
2018-05-25T15:25:06.550Z,1.23
2018-05-25T15:28:09.909Z,2.03
2018-05-25T15:31:13.223Z,3.30
2018-05-25T15:34:16.522Z,2.17
2018-05-25T15:37:19.833Z,8.03
2018-05-25T15:40:23.170Z,2.30
2018-05-25T15:43:26.470Z,2.20
2018-05-25T15:46:29.827Z,1.50
2018-05-25T15:49:33.150Z,2.53
2018-05-25T15:52:37.234Z,2.57
2018-05-25T15:55:40.558Z,4.13
2018-05-25T15:58:44.638Z,1.00
2018-05-25T16:01:47.961Z,2.40
2018-05-25T16:04:52.042Z,5.80
2018-05-25T16:07:55.349Z,1.23
2018-05-25T16:10:58.670Z,2.90
2018-05-25T16:14:02.738Z,3.67
2018-05-25T16:17:06.084Z,1.40
2018-05-25T16:20:10.158Z,6.70
2018-05-25T16:23:13.496Z,2.77
2018-05-25T16:26:16.824Z,0.63
2018-05-25T16:29:20.173Z,2.57
2018-05-25T16:32:23.476Z,5.17
2018-05-25T16:35:26.790Z,3.77
2018-05-25T16:38:30.854Z,2.13
2018-05-25T16:41:34.175Z,2.40
2018-05-25T16:44:37.473Z,2.10
2018-05-25T16:47:40.791Z,3.10
2018-05-25T16:50:44.876Z,6.10
2018-05-25T16:53:48.203Z,1.57
2018-05-25T16:56:51.518Z,1.50
2018-05-25T16:59:54.861Z,2.43
2018-05-25T17:02:58.169Z,3.47
2018-05-25T17:06:01.480Z,1.60
2018-05-25T17:09:06.453Z,2.00
2018-05-25T17:12:09.768Z,2.47
2018-05-25T17:15:13.078Z,1.73
2018-05-25T17:18:16.399Z,3.90
2018-05-25T17:21:19.721Z,3.07
2018-05-25T17:24:23.079Z,1.60
2018-05-25T17:27:26.362Z,3.13
2018-05-25T17:30:29.695Z,2.77
2018-05-25T17:33:33.022Z,4.03
2018-05-25T17:36:36.330Z,1.67
2018-05-25T17:39:39.657Z,1.43
2018-05-25T17:42:42.962Z,1.70
2018-05-25T17:45:46.294Z,1.73
2018-05-25T17:48:49.592Z,2.47
2018-05-25T17:51:52.937Z,4.87
2018-05-25T17:54:56.249Z,3.63
2018-05-25T17:57:59.562Z,4.43
2018-05-25T18:01:03.624Z,5.17
2018-05-25T18:04:06.937Z,2.53
2018-05-25T18:07:10.238Z,2.40
2018-05-25T18:10:13.554Z,3.43
2018-05-25T18:13:16.874Z,5.13
2018-05-25T18:16:20.206Z,3.77
2018-05-25T18:19:23.505Z,7.43
2018-05-25T18:22:26.816Z,2.90
2018-05-25T18:25:30.183Z,4.70
2018-05-25T18:28:33.518Z,2.50
2018-05-25T18:31:36.818Z,3.10
2018-05-25T18:34:40.138Z,8.83
2018-05-25T18:37:44.213Z,7.50
2018-05-25T18:40:47.534Z,3.47
2018-05-25T18:43:50.837Z,7.97
2018-05-25T18:46:54.158Z,8.80
2018-05-25T18:49:57.469Z,5.37
2018-05-25T18:53:00.778Z,4.00
2018-05-25T18:56:04.084Z,5.93
2018-05-25T18:59:07.393Z,6.27
2018-05-25T19:02:10.717Z,5.00
2018-05-25T19:05:14.029Z,9.30
2018-05-25T19:08:18.106Z,2.77
2018-05-25T19:11:21.447Z,3.40
2018-05-25T19:14:25.522Z,6.77
2018-05-25T19:17:28.837Z,3.70
2018-05-25T19:20:32.160Z,2.50
2018-05-25T19:23:35.468Z,2.37
2018-05-25T19:26:38.777Z,6.30
2018-05-25T19:29:42.130Z,3.80
2018-05-25T19:32:46.201Z,4.90
2018-05-25T19:35:49.519Z,1.90
2018-05-25T19:38:52.866Z,4.20
2018-05-25T19:41:56.165Z,2.93
2018-05-25T19:44:59.485Z,3.30
2018-05-25T19:48:02.804Z,4.33
2018-05-25T19:51:06.123Z,1.57
2018-05-25T19:54:10.190Z,4.57
2018-05-25T19:57:13.509Z,3.53
2018-05-25T20:00:16.829Z,6.50
2018-05-25T20:03:20.917Z,2.90
2018-05-25T20:06:24.272Z,5.70
2018-05-25T20:09:27.549Z,3.73
2018-05-25T20:12:30.879Z,2.63
2018-05-25T20:15:34.189Z,4.60
2018-05-25T20:18:37.506Z,2.80
2018-05-25T20:21:40.845Z,8.10
2018-05-25T20:24:44.149Z,3.83
2018-05-25T20:27:47.490Z,2.57
2018-05-25T20:30:50.789Z,3.73
2018-05-25T20:33:54.102Z,5.17
2018-05-25T20:36:57.420Z,4.47
2018-05-25T20:40:01.531Z,3.87
2018-05-25T20:43:05.601Z,5.23
2018-05-25T20:46:08.914Z,9.87
2018-05-25T20:49:12.229Z,7.17
2018-05-25T20:52:16.306Z,2.87
2018-05-25T20:55:19.634Z,2.43
2018-05-25T20:58:22.938Z,5.80
2018-05-25T21:01:27.025Z,2.83
2018-05-25T21:04:30.337Z,5.27
2018-05-25T21:07:33.651Z,4.83
2018-05-25T21:10:36.959Z,6.70
2018-05-25T21:13:40.281Z,2.53
2018-05-25T21:16:43.583Z,6.43
2018-05-25T21:19:46.901Z,4.17
2018-05-25T21:22:50.202Z,3.37
2018-05-25T21:25:53.517Z,6.53
2018-05-25T21:28:57.593Z,5.73
2018-05-25T21:32:00.907Z,4.50
2018-05-25T21:35:04.237Z,3.97
2018-05-25T21:38:08.309Z,5.33
2018-05-25T21:41:11.613Z,4.73
2018-05-25T21:44:14.915Z,5.80
2018-05-25T21:47:18.251Z,3.10
2018-05-25T21:50:21.553Z,4.10
2018-05-25T21:53:24.877Z,2.47
2018-05-25T21:56:28.223Z,3.47
2018-05-25T21:59:32.303Z,4.73
2018-05-25T22:02:35.630Z,5.43
2018-05-25T22:05:38.933Z,4.80
2018-05-25T22:08:43.043Z,3.90
2018-05-25T22:11:46.354Z,4.30
2018-05-25T22:14:50.438Z,3.20
2018-05-25T22:17:53.752Z,3.93
2018-05-25T22:20:57.078Z,3.57
2018-05-25T22:24:00.378Z,2.83
2018-05-25T22:27:03.706Z,6.47
2018-05-25T22:30:07.013Z,4.17
2018-05-25T22:33:10.324Z,3.43
2018-05-25T22:36:13.632Z,2.40
2018-05-25T22:39:16.947Z,4.77
2018-05-25T22:42:37.927Z,8.77
2018-05-25T22:45:58.748Z,5.17
2018-05-25T22:49:20.598Z,6.70
2018-05-25T22:52:28.554Z,3.10
2018-05-25T22:55:31.865Z,5.20
2018-05-25T22:58:35.181Z,5.37
2018-05-25T23:01:39.258Z,6.27
2018-05-25T23:04:42.562Z,6.40
2018-05-25T23:07:45.889Z,7.17
2018-05-25T23:10:49.953Z,4.50
2018-05-25T23:13:53.298Z,6.33
2018-05-25T23:16:57.377Z,6.07
2018-05-25T23:20:00.693Z,5.73
2018-05-25T23:23:04.014Z,6.70
2018-05-25T23:26:08.078Z,5.83
2018-05-25T23:29:11.385Z,4.57
2018-05-25T23:32:14.705Z,5.03
2018-05-25T23:35:18.050Z,10.97
2018-05-25T23:38:21.349Z,4.27
2018-05-25T23:41:24.662Z,2.13
2018-05-25T23:44:27.973Z,4.70
2018-05-25T23:47:31.297Z,4.43
2018-05-25T23:50:35.364Z,4.43
2018-05-25T23:53:38.702Z,3.10
2018-05-25T23:56:42.773Z,5.93
2018-05-25T23:59:46.081Z,5.77
